Time,TemperatureF,DewpointF,PressureIn,WindDirection,WindDirectionDegrees,WindSpeedMPH,WindSpeedGustMPH,Humidity,HourlyPrecipIn,Conditions,Clouds,dailyrainin,SoftwareType,DateUTC
2013-11-10 00:06:00,45.1,8.6,30.15,North,-999,0.0,0.0,22,0.00,,,-99.99,FreeWX 2.04,2013-11-10 05:06:00,
2013-11-10 00:16:00,44.8,8.2,30.15,North,-999,0.0,0.0,22,0.00,,,-99.99,FreeWX 2.04,2013-11-10 05:16:00,
2013-11-10 00:26:00,44.8,11.1,30.15,North,-999,0.0,0.0,25,0.00,,,-99.99,FreeWX 2.04,2013-11-10 05:26:00,
2013-11-10 00:36:00,44.6,10.9,30.15,North,-999,0.0,0.0,25,0.00,,,-99.99,FreeWX 2.04,2013-11-10 05:36:00,
2013-11-10 00:46:00,44.8,11.1,30.15,North,-999,0.0,0.0,25,0.00,,,-99.99,FreeWX 2.04,2013-11-10 05:46:00,
2013-11-10 00:56:00,45.0,11.3,30.15,North,-999,0.0,0.0,25,0.00,,,-99.99,FreeWX 2.04,2013-11-10 05:56:00,
2013-11-10 01:06:00,45.0,11.3,30.15,North,-999,0.0,0.0,25,0.00,,,-99.99,FreeWX 2.04,2013-11-10 06:06:00,
2013-11-10 01:16:00,44.6,10.9,30.15,North,-999,0.0,0.0,25,0.00,,,-99.99,FreeWX 2.04,2013-11-10 06:16:00,
2013-11-10 01:26:00,44.2,10.8,30.15,North,-999,0.0,0.0,25,0.00,,,-99.99,FreeWX 2.04,2013-11-10 06:26:00,
2013-11-10 01:36:00,44.2,10.8,30.15,North,-999,0.0,0.0,25,0.00,,,-99.99,FreeWX 2.04,2013-11-10 06:36:00,
2013-11-10 01:46:00,44.2,10.8,30.15,North,-999,0.0,0.0,25,0.00,,,-99.99,FreeWX 2.04,2013-11-10 06:46:00,
2013-11-10 01:56:00,44.2,10.8,30.15,North,-999,0.0,0.0,25,0.00,,,-99.99,FreeWX 2.04,2013-11-10 06:56:00,
2013-11-10 02:06:00,43.9,12.0,30.15,North,-999,0.0,0.0,27,0.00,,,-99.99,FreeWX 2.04,2013-11-10 07:06:00,
2013-11-10 02:16:00,43.7,12.0,30.15,North,-999,0.0,0.0,27,0.00,,,-99.99,FreeWX 2.04,2013-11-10 07:16:00,
2013-11-10 02:26:00,43.3,12.4,30.15,North,-999,0.0,0.0,28,0.00,,,-99.99,FreeWX 2.04,2013-11-10 07:26:00,
2013-11-10 02:36:00,43.2,12.4,30.15,North,-999,0.0,0.0,28,0.00,,,-99.99,FreeWX 2.04,2013-11-10 07:36:00,
2013-11-10 02:46:00,43.0,12.9,30.15,North,-999,0.0,0.0,29,0.00,,,-99.99,FreeWX 2.04,2013-11-10 07:46:00,
2013-11-10 02:56:00,43.0,12.9,30.15,North,-999,0.0,0.0,29,0.00,,,-99.99,FreeWX 2.04,2013-11-10 07:56:00,
2013-11-10 03:06:00,43.3,13.3,30.15,North,-999,0.0,0.0,29,0.00,,,-99.99,FreeWX 2.04,2013-11-10 08:06:00,
2013-11-10 03:16:00,43.7,13.6,30.15,North,-999,0.0,0.0,29,0.00,,,-99.99,FreeWX 2.04,2013-11-10 08:16:00,
2013-11-10 03:26:00,43.3,13.3,30.15,North,-999,0.0,0.0,29,0.00,,,-99.99,FreeWX 2.04,2013-11-10 08:26:00,
2013-11-10 03:36:00,43.3,14.0,30.15,North,-999,0.0,0.0,30,0.00,,,-99.99,FreeWX 2.04,2013-11-10 08:36:00,
2013-11-10 03:46:00,43.0,13.6,30.15,North,-999,0.0,0.0,30,0.00,,,-99.99,FreeWX 2.04,2013-11-10 08:46:00,
2013-11-10 03:56:00,42.8,14.4,30.15,North,-999,0.0,0.0,31,0.00,,,-99.99,FreeWX 2.04,2013-11-10 08:56:00,
2013-11-10 04:06:00,42.4,14.7,30.15,North,-999,0.0,0.0,32,0.00,,,-99.99,FreeWX 2.04,2013-11-10 09:06:00,
2013-11-10 04:16:00,42.3,16.0,30.15,North,-999,0.0,0.0,34,0.00,,,-99.99,FreeWX 2.04,2013-11-10 09:16:00,
2013-11-10 04:26:00,42.1,17.1,30.15,North,-999,0.0,3.6,36,0.00,,,-99.99,FreeWX 2.04,2013-11-10 09:26:00,
2013-11-10 04:36:00,42.3,18.5,30.15,North,-999,0.0,0.0,38,0.00,,,-99.99,FreeWX 2.04,2013-11-10 09:36:00,
2013-11-10 04:46:00,42.4,18.7,30.15,North,-999,0.0,0.0,38,0.00,,,-99.99,FreeWX 2.04,2013-11-10 09:46:00,
2013-11-10 04:56:00,42.6,18.9,30.15,North,-999,0.0,0.0,38,0.00,,,-99.99,FreeWX 2.04,2013-11-10 09:56:00,
2013-11-10 05:06:00,42.6,19.4,30.15,North,-999,0.0,0.0,39,0.00,,,-99.99,FreeWX 2.04,2013-11-10 10:06:00,
2013-11-10 05:16:00,42.4,19.2,30.15,North,-999,0.0,0.0,39,0.00,,,-99.99,FreeWX 2.04,2013-11-10 10:16:00,
2013-11-10 05:26:00,42.1,19.6,30.18,North,-999,0.0,0.0,40,0.00,,,-99.99,FreeWX 2.04,2013-11-10 10:26:00,
2013-11-10 05:36:00,41.9,19.9,30.18,North,-999,0.0,0.0,41,0.00,,,-99.99,FreeWX 2.04,2013-11-10 10:36:00,
2013-11-10 05:46:00,41.7,20.3,30.18,North,-999,0.0,0.0,42,0.00,,,-99.99,FreeWX 2.04,2013-11-10 10:46:00,
2013-11-10 05:56:00,41.5,20.1,30.18,North,-999,0.0,3.1,42,0.00,,,-99.99,FreeWX 2.04,2013-11-10 10:56:00,
2013-11-10 06:06:00,41.5,20.7,30.18,North,-999,0.0,0.0,43,0.00,,,-99.99,FreeWX 2.04,2013-11-10 11:06:00,
2013-11-10 06:16:00,41.2,20.5,30.18,North,-999,0.0,0.0,43,0.00,,,-99.99,FreeWX 2.04,2013-11-10 11:16:00,
2013-11-10 06:26:00,41.2,21.0,30.18,North,-999,0.0,0.0,44,0.00,,,-99.99,FreeWX 2.04,2013-11-10 11:26:00,
2013-11-10 06:36:00,41.0,21.4,30.18,North,-999,0.0,0.0,45,0.00,,,-99.99,FreeWX 2.04,2013-11-10 11:36:00,
2013-11-10 06:46:00,40.6,21.0,30.18,North,-999,0.0,0.0,45,0.00,,,-99.99,FreeWX 2.04,2013-11-10 11:46:00,
2013-11-10 06:56:00,40.3,21.2,30.18,North,-999,0.0,0.0,46,0.00,,,-99.99,FreeWX 2.04,2013-11-10 11:56:00,
2013-11-10 07:06:00,40.1,21.9,30.18,North,-999,0.0,0.0,48,0.00,,,-99.99,FreeWX 2.04,2013-11-10 12:06:00,
2013-11-10 07:16:00,40.3,22.6,30.18,North,-999,0.0,0.0,49,0.00,,,-99.99,FreeWX 2.04,2013-11-10 12:16:00,
2013-11-10 07:26:00,40.5,22.8,30.21,North,-999,0.0,0.0,49,0.00,,,-99.99,FreeWX 2.04,2013-11-10 12:26:00,
2013-11-10 07:36:00,40.8,23.2,30.21,North,-999,0.0,0.0,49,0.00,,,-99.99,FreeWX 2.04,2013-11-10 12:36:00,
2013-11-10 07:47:00,41.2,23.5,30.21,North,-999,0.0,0.0,49,0.00,,,-99.99,FreeWX 2.04,2013-11-10 12:47:00,
2013-11-10 07:57:00,41.9,24.1,30.21,North,-999,0.0,0.0,49,0.00,,,-99.99,FreeWX 2.04,2013-11-10 12:57:00,
2013-11-10 08:07:00,43.2,25.3,30.21,North,-999,0.0,0.0,49,0.00,,,-99.99,FreeWX 2.04,2013-11-10 13:07:00,
2013-11-10 08:17:00,45.1,26.1,30.21,North,-999,0.0,3.6,47,0.00,,,-99.99,FreeWX 2.04,2013-11-10 13:17:00,
2013-11-10 08:27:00,46.6,25.3,30.21,North,-999,0.0,4.9,43,0.00,,,-99.99,FreeWX 2.04,2013-11-10 13:27:00,
2013-11-10 08:37:00,47.7,23.4,30.21,North,-999,0.0,4.5,38,0.00,,,-99.99,FreeWX 2.04,2013-11-10 13:37:00,
2013-11-10 08:47:00,48.9,23.7,30.21,North,-999,0.0,4.5,37,0.00,,,-99.99,FreeWX 2.04,2013-11-10 13:47:00,
2013-11-10 08:57:00,50.0,19.8,30.24,North,-999,0.0,3.6,30,0.00,,,-99.99,FreeWX 2.04,2013-11-10 13:57:00,
2013-11-10 09:07:00,50.7,19.6,30.24,North,-999,0.0,0.0,29,0.00,,,-99.99,FreeWX 2.04,2013-11-10 14:07:00,
2013-11-10 09:17:00,51.6,18.7,30.24,NE,46,1.0,7.4,27,0.00,,,-99.99,FreeWX 2.04,2013-11-10 14:17:00,
2013-11-10 09:27:00,51.8,18.0,30.24,North,-999,0.0,4.0,26,0.00,,,-99.99,FreeWX 2.04,2013-11-10 14:27:00,
2013-11-10 09:37:00,52.3,15.6,30.24,North,-999,0.0,5.4,23,0.00,,,-99.99,FreeWX 2.04,2013-11-10 14:37:00,
2013-11-10 09:47:00,53.1,13.1,30.24,North,-999,0.0,4.5,20,0.00,,,-99.99,FreeWX 2.04,2013-11-10 14:47:00,
2013-11-10 09:57:00,53.6,13.5,30.24,North,-999,0.0,6.7,20,0.00,,,-99.99,FreeWX 2.04,2013-11-10 14:57:00,
2013-11-10 10:07:00,54.5,14.2,30.24,North,-999,0.0,8.3,20,0.00,,,-99.99,FreeWX 2.04,2013-11-10 15:07:00,
2013-11-10 10:17:00,54.9,14.5,30.24,North,-999,0.0,8.7,20,0.00,,,-99.99,FreeWX 2.04,2013-11-10 15:17:00,
2013-11-10 10:27:00,54.7,14.4,30.24,North,-999,0.0,0.0,20,0.00,,,-99.99,FreeWX 2.04,2013-11-10 15:27:00,
2013-11-10 10:37:00,54.5,14.2,30.24,North,-999,0.0,6.3,20,0.00,,,-99.99,FreeWX 2.04,2013-11-10 15:37:00,
2013-11-10 10:47:00,55.9,15.4,30.24,North,-999,0.0,5.8,20,0.00,,,-99.99,FreeWX 2.04,2013-11-10 15:47:00,
2013-11-10 10:57:00,56.5,14.7,30.24,North,-999,0.0,7.8,19,0.00,,,-99.99,FreeWX 2.04,2013-11-10 15:57:00,
2013-11-10 11:07:00,56.3,14.5,30.27,North,-999,0.0,5.4,19,0.00,,,-99.99,FreeWX 2.04,2013-11-10 16:07:00,
2013-11-10 11:17:00,56.7,14.9,30.27,North,-999,0.0,5.8,19,0.00,,,-99.99,FreeWX 2.04,2013-11-10 16:17:00,
2013-11-10 11:27:00,56.7,14.9,30.27,North,-999,0.0,4.0,19,0.00,,,-99.99,FreeWX 2.04,2013-11-10 16:27:00,
2013-11-10 11:37:00,56.7,14.9,30.27,North,-999,0.0,5.4,19,0.00,,,-99.99,FreeWX 2.04,2013-11-10 16:37:00,
2013-11-10 11:47:00,56.8,15.1,30.27,North,-999,0.0,4.9,19,0.00,,,-99.99,FreeWX 2.04,2013-11-10 16:47:00,
2013-11-10 11:57:00,57.6,15.6,30.27,North,-999,0.0,7.8,19,0.00,,,-99.99,FreeWX 2.04,2013-11-10 16:57:00,
2013-11-10 12:07:00,56.5,14.7,30.27,North,-999,0.0,2.7,19,0.00,,,-99.99,FreeWX 2.04,2013-11-10 17:07:00,
2013-11-10 12:17:00,56.7,14.9,30.27,North,-999,0.0,10.1,19,0.00,,,-99.99,FreeWX 2.04,2013-11-10 17:17:00,
2013-11-10 12:27:00,56.7,14.9,30.27,North,-999,0.0,4.0,19,0.00,,,-99.99,FreeWX 2.04,2013-11-10 17:27:00,
2013-11-10 12:37:00,57.4,15.4,30.27,North,-999,0.0,3.1,19,0.00,,,-99.99,FreeWX 2.04,2013-11-10 17:37:00,
2013-11-10 12:47:00,56.7,14.9,30.27,North,-999,0.0,3.6,19,0.00,,,-99.99,FreeWX 2.04,2013-11-10 17:47:00,
2013-11-10 12:57:00,56.3,14.5,30.27,North,-999,0.0,3.6,19,0.00,,,-99.99,FreeWX 2.04,2013-11-10 17:57:00,
2013-11-10 13:07:00,56.7,14.9,30.24,North,-999,0.0,2.7,19,0.00,,,-99.99,FreeWX 2.04,2013-11-10 18:07:00,
2013-11-10 13:17:00,57.6,15.6,30.24,North,-999,0.0,6.7,19,0.00,,,-99.99,FreeWX 2.04,2013-11-10 18:17:00,
2013-11-10 13:27:00,57.7,15.8,30.24,North,-999,0.0,5.8,19,0.00,,,-99.99,FreeWX 2.04,2013-11-10 18:27:00,
2013-11-10 13:37:00,57.6,15.6,30.24,North,-999,0.0,2.7,19,0.00,,,-99.99,FreeWX 2.04,2013-11-10 18:37:00,
2013-11-10 13:47:00,56.3,14.5,30.24,North,-999,0.0,5.8,19,0.00,,,-99.99,FreeWX 2.04,2013-11-10 18:47:00,
2013-11-10 13:57:00,57.0,15.3,30.27,North,-999,0.0,0.0,19,0.00,,,-99.99,FreeWX 2.04,2013-11-10 18:57:00,
2013-11-10 14:07:00,55.0,14.7,30.27,North,-999,0.0,5.4,20,0.00,,,-99.99,FreeWX 2.04,2013-11-10 19:07:00,
2013-11-10 14:17:00,55.9,15.4,30.27,North,-999,0.0,0.0,20,0.00,,,-99.99,FreeWX 2.04,2013-11-10 19:17:00,
2013-11-10 14:27:00,55.8,15.3,30.27,North,-999,0.0,2.7,20,0.00,,,-99.99,FreeWX 2.04,2013-11-10 19:27:00,
2013-11-10 14:37:00,55.0,14.7,30.27,North,-999,0.0,6.3,20,0.00,,,-99.99,FreeWX 2.04,2013-11-10 19:37:00,
2013-11-10 14:47:00,54.7,14.4,30.27,North,-999,0.0,0.0,20,0.00,,,-99.99,FreeWX 2.04,2013-11-10 19:47:00,
2013-11-10 14:57:00,55.0,14.7,30.27,North,-999,0.0,4.0,20,0.00,,,-99.99,FreeWX 2.04,2013-11-10 19:57:00,
2013-11-10 15:07:00,54.3,14.2,30.27,North,-999,0.0,3.1,20,0.00,,,-99.99,FreeWX 2.04,2013-11-10 20:07:00,
2013-11-10 15:17:00,54.3,14.2,30.27,North,-999,0.0,3.6,20,0.00,,,-99.99,FreeWX 2.04,2013-11-10 20:17:00,
2013-11-10 15:27:00,54.1,14.0,30.27,North,-999,0.0,0.0,20,0.00,,,-99.99,FreeWX 2.04,2013-11-10 20:27:00,
2013-11-10 15:37:00,53.4,13.5,30.27,North,-999,0.0,0.0,20,0.00,,,-99.99,FreeWX 2.04,2013-11-10 20:37:00,
2013-11-10 15:47:00,53.8,13.6,30.27,North,-999,0.0,0.0,20,0.00,,,-99.99,FreeWX 2.04,2013-11-10 20:47:00,
2013-11-10 15:57:00,53.2,13.3,30.27,North,-999,0.0,6.7,20,0.00,,,-99.99,FreeWX 2.04,2013-11-10 20:57:00,
2013-11-10 16:07:00,52.5,13.8,30.27,North,-999,0.0,0.0,21,0.00,,,-99.99,FreeWX 2.04,2013-11-10 21:07:00,
2013-11-10 16:17:00,52.2,13.5,30.27,North,-999,0.0,0.0,21,0.00,,,-99.99,FreeWX 2.04,2013-11-10 21:17:00,
2013-11-10 16:27:00,51.6,9.5,30.27,North,-999,0.0,0.0,18,0.00,,,-99.99,FreeWX 2.04,2013-11-10 21:27:00,
2013-11-10 16:37:00,51.1,9.1,30.27,North,-999,0.0,0.0,18,0.00,,,-99.99,FreeWX 2.04,2013-11-10 21:37:00,
2013-11-10 16:47:00,50.2,9.5,30.27,North,-999,0.0,0.0,19,0.00,,,-99.99,FreeWX 2.04,2013-11-10 21:47:00,
2013-11-10 16:57:00,49.6,9.1,30.27,North,-999,0.0,0.0,19,0.00,,,-99.99,FreeWX 2.04,2013-11-10 21:57:00,
2013-11-10 17:07:00,49.1,8.6,30.27,North,-999,0.0,0.0,19,0.00,,,-99.99,FreeWX 2.04,2013-11-10 22:07:00,
2013-11-10 17:17:00,48.6,8.2,30.27,North,-999,0.0,0.0,19,0.00,,,-99.99,FreeWX 2.04,2013-11-10 22:17:00,
2013-11-10 17:27:00,48.0,7.7,30.27,North,-999,0.0,0.0,19,0.00,,,-99.99,FreeWX 2.04,2013-11-10 22:27:00,
2013-11-10 17:37:00,47.5,7.3,30.30,North,-999,0.0,0.0,19,0.00,,,-99.99,FreeWX 2.04,2013-11-10 22:37:00,
2013-11-10 17:47:00,46.9,6.8,30.30,North,-999,0.0,0.0,19,0.00,,,-99.99,FreeWX 2.04,2013-11-10 22:47:00,
2013-11-10 17:57:00,46.2,6.3,30.30,North,-999,0.0,0.0,19,0.00,,,-99.99,FreeWX 2.04,2013-11-10 22:57:00,
2013-11-10 18:07:00,45.3,6.6,30.30,North,-999,0.0,0.0,20,0.00,,,-99.99,FreeWX 2.04,2013-11-10 23:07:00,
2013-11-10 18:17:00,44.2,5.7,30.30,North,-999,0.0,0.0,20,0.00,,,-99.99,FreeWX 2.04,2013-11-10 23:17:00,
2013-11-10 18:27:00,43.5,5.2,30.30,North,-999,0.0,0.0,20,0.00,,,-99.99,FreeWX 2.04,2013-11-10 23:27:00,
2013-11-10 18:37:00,42.6,4.5,30.30,North,-999,0.0,0.0,20,0.00,,,-99.99,FreeWX 2.04,2013-11-10 23:37:00,
2013-11-10 18:47:00,42.3,4.1,30.30,North,-999,0.0,0.0,20,0.00,,,-99.99,FreeWX 2.04,2013-11-10 23:47:00,
2013-11-10 18:57:00,41.5,4.5,30.30,North,-999,0.0,0.0,21,0.00,,,-99.99,FreeWX 2.04,2013-11-10 23:57:00,
2013-11-10 19:07:00,40.6,3.7,30.30,North,-999,0.0,0.0,21,0.00,,,-99.99,FreeWX 2.04,2013-11-11 00:07:00,
2013-11-10 19:17:00,40.1,3.4,30.30,North,-999,0.0,0.0,21,0.00,,,-99.99,FreeWX 2.04,2013-11-11 00:17:00,
2013-11-10 19:27:00,39.2,4.6,30.30,North,-999,0.0,0.0,23,0.00,,,-99.99,FreeWX 2.04,2013-11-11 00:27:00,
2013-11-10 19:37:00,39.0,7.2,30.30,North,-999,0.0,0.0,26,0.00,,,-99.99,FreeWX 2.04,2013-11-11 00:37:00,
2013-11-10 19:47:00,38.7,6.8,30.30,North,-999,0.0,0.0,26,0.00,,,-99.99,FreeWX 2.04,2013-11-11 00:47:00,
2013-11-10 19:57:00,37.9,6.1,30.30,North,-999,0.0,0.0,26,0.00,,,-99.99,FreeWX 2.04,2013-11-11 00:57:00,
2013-11-10 20:07:00,37.0,5.4,30.30,North,-999,0.0,0.0,26,0.00,,,-99.99,FreeWX 2.04,2013-11-11 01:07:00,
2013-11-10 20:17:00,36.7,7.5,30.30,North,-999,0.0,0.0,29,0.00,,,-99.99,FreeWX 2.04,2013-11-11 01:17:00,
2013-11-10 20:27:00,36.3,8.6,30.33,North,-999,0.0,0.0,31,0.00,,,-99.99,FreeWX 2.04,2013-11-11 01:27:00,
2013-11-10 20:37:00,36.1,8.4,30.33,North,-999,0.0,0.0,31,0.00,,,-99.99,FreeWX 2.04,2013-11-11 01:37:00,
2013-11-10 20:47:00,35.4,7.9,30.33,North,-999,0.0,0.0,31,0.00,,,-99.99,FreeWX 2.04,2013-11-11 01:47:00,
2013-11-10 20:57:00,35.1,8.2,30.33,North,-999,0.0,0.0,32,0.00,,,-99.99,FreeWX 2.04,2013-11-11 01:57:00,
2013-11-10 21:07:00,35.1,8.2,30.33,North,-999,0.0,0.0,32,0.00,,,-99.99,FreeWX 2.04,2013-11-11 02:07:00,
2013-11-10 21:17:00,34.9,9.3,30.33,North,-999,0.0,0.0,34,0.00,,,-99.99,FreeWX 2.04,2013-11-11 02:17:00,
2013-11-10 21:27:00,34.7,9.9,30.33,North,-999,0.0,0.0,35,0.00,,,-99.99,FreeWX 2.04,2013-11-11 02:27:00,
2013-11-10 21:37:00,34.5,9.7,30.33,North,-999,0.0,0.0,35,0.00,,,-99.99,FreeWX 2.04,2013-11-11 02:37:00,
2013-11-10 21:47:00,34.3,9.0,30.33,North,-999,0.0,0.0,34,0.00,,,-99.99,FreeWX 2.04,2013-11-11 02:47:00,
2013-11-10 21:57:00,34.0,9.3,30.33,North,-999,0.0,0.0,35,0.00,,,-99.99,FreeWX 2.04,2013-11-11 02:57:00,
2013-11-10 22:07:00,33.8,9.1,30.33,North,-999,0.0,0.0,35,0.00,,,-99.99,FreeWX 2.04,2013-11-11 03:07:00,
2013-11-10 22:17:00,33.3,9.1,30.33,North,-999,0.0,0.0,36,0.00,,,-99.99,FreeWX 2.04,2013-11-11 03:17:00,
2013-11-10 22:27:00,32.9,9.5,30.33,North,-999,0.0,0.0,37,0.00,,,-99.99,FreeWX 2.04,2013-11-11 03:27:00,
2013-11-10 22:37:00,32.9,10.8,30.33,North,-999,0.0,0.0,39,0.00,,,-99.99,FreeWX 2.04,2013-11-11 03:37:00,
2013-11-10 22:47:00,32.7,11.7,30.33,North,-999,0.0,0.0,41,0.00,,,-99.99,FreeWX 2.04,2013-11-11 03:47:00,
2013-11-10 22:57:00,32.5,11.5,30.33,North,-999,0.0,0.0,41,0.00,,,-99.99,FreeWX 2.04,2013-11-11 03:57:00,
2013-11-10 23:07:00,32.4,10.8,30.33,North,-999,0.0,0.0,40,0.00,,,-99.99,FreeWX 2.04,2013-11-11 04:07:00,
2013-11-10 23:17:00,32.0,10.4,30.33,North,-999,0.0,0.0,40,0.00,,,-99.99,FreeWX 2.04,2013-11-11 04:17:00,
2013-11-10 23:27:00,31.6,10.6,30.33,North,-999,0.0,0.0,41,0.00,,,-99.99,FreeWX 2.04,2013-11-11 04:27:00,
2013-11-10 23:37:00,31.6,10.6,30.30,North,-999,0.0,0.0,41,0.00,,,-99.99,FreeWX 2.04,2013-11-11 04:37:00,
2013-11-10 23:47:00,31.6,10.6,30.30,North,-999,0.0,0.0,41,0.00,,,-99.99,FreeWX 2.04,2013-11-11 04:47:00,
2013-11-10 23:57:00,31.6,10.6,30.30,North,-999,0.0,0.0,41,0.00,,,-99.99,FreeWX 2.04,2013-11-11 04:57:00,